Galicia — ECEC — position and weather

sailwx.info

Track history (hours):
 
Tides and Currents Weather Stations Pressure Air Temp Water Temp Dewpoint Dewpoint Depression Visibility Wind Speed Wind Dir Waves Ship Positions

Galicia

Last reported at 2014-Aug-01 09:33 UTC. Time now 2014-Aug-01 09:51 UTC.
Position N 51°14' E 001°46'.

Length 149 m; draft 5.5 m.

Type: Cargo ship. MMSI: 224548000.

Date/timePositionNaut miles runAvg speedWind from/ knotsBaromVisibWave heightAir tempDewpointWater temp
2014-Aug-01 09:33N 51°14' E 001°46'1514.4
2014-Aug-01 08:31N 51°24' E 002°04'1414.6
2014-Aug-01 07:31N 51°22' E 002°27'1414.4
2014-Aug-01 06:33N 51°22' E 002°50'16 7.5
2014-Aug-01 04:29N 51°19' E 003°14'0 0.0
2014-Aug-01 03:33N 51°19' E 003°14'0 0.0
2014-Aug-01 02:33N 51°19' E 003°14'0 0.0
2014-Aug-01 01:33N 51°19' E 003°14'0 0.0
2014-Aug-01 00:32N 51°19' E 003°14'0 0.0
2014-Jul-31 23:33N 51°19' E 003°14'0 0.0
2014-Jul-31 22:33N 51°19' E 003°14'0 0.0
2014-Jul-31 21:33N 51°19' E 003°14'0 0.0
2014-Jul-31 20:33N 51°19' E 003°14'0 0.0
2014-Jul-31 19:33N 51°19' E 003°14'0 0.0
2014-Jul-31 18:33N 51°19' E 003°14'0 0.0
2014-Jul-31 17:33N 51°19' E 003°14'0 0.0
2014-Jul-31 16:33N 51°19' E 003°14'0 0.0
2014-Jul-31 15:33N 51°18' E 003°14'0 0.0
2014-Jul-31 14:33N 51°19' E 003°14'0 0.0
2014-Jul-31 13:33N 51°19' E 003°14'0 0.0
2014-Jul-31 12:33N 51°19' E 003°14'0 0.0
2014-Jul-31 11:33N 51°19' E 003°14'0 0.0
2014-Jul-31 10:33N 51°19' E 003°14'0 0.0
2014-Jul-31 09:33N 51°19' E 003°14'0 0.0
2014-Jul-31 08:33N 51°19' E 003°14'0 0.0
2014-Jul-31 07:33N 51°19' E 003°14'0 0.0
2014-Jul-31 06:33N 51°19' E 003°14'0 0.0
2014-Jul-31 05:33N 51°19' E 003°14'0 0.0
2014-Jul-31 04:33N 51°18' E 003°14'0 0.0
2014-Jul-31 03:33N 51°19' E 003°14'0 0.0
2014-Jul-31 02:33N 51°19' E 003°14'0 0.0
2014-Jul-31 01:33N 51°19' E 003°14'0 0.0
2014-Jul-31 00:33N 51°19' E 003°14'2 1.3
2014-Jul-30 23:16N 51°20' E 003°13'2 3.0
2014-Jul-30 22:31N 51°22' E 003°11'7 6.8
2014-Jul-30 21:33N 51°25' E 003°01'8 8.2
2014-Jul-30 20:33N 51°25' E 002°48'9 7.6
2014-Jul-30 19:23N 51°22' E 002°35'1113.2
2014-Jul-30 18:31N 51°19' E 002°17'1212.9
2014-Jul-30 17:33N 51°24' E 001°59'1414.4
2014-Jul-30 16:33N 51°29' E 001°37'1413.9
2014-Jul-30 15:34N 51°29' E 001°15'1616.1
2014-Jul-30 14:34N 51°28' E 000°49'3 3.2
2014-Jul-30 13:33N 51°27' E 000°45'0 0.0
2014-Jul-30 12:33N 51°27' E 000°45'0 0.0
2014-Jul-30 11:33N 51°27' E 000°45'0 0.0
2014-Jul-30 10:33N 51°27' E 000°45'0 0.0
2014-Jul-30 09:33N 51°27' E 000°45'0 0.0
2014-Jul-30 08:33N 51°27' E 000°45'0 0.0
2014-Jul-30 07:33N 51°27' E 000°45'0 0.0
2014-Jul-30 06:27N 51°27' E 000°45'0 0.0
2014-Jul-30 05:33N 51°27' E 000°45'0 0.0
2014-Jul-30 04:33N 51°27' E 000°45'0 0.0
2014-Jul-30 03:33N 51°27' E 000°45'0 0.0
2014-Jul-30 02:33N 51°27' E 000°45'0 0.0
2014-Jul-30 01:33N 51°27' E 000°45'2 1.7
2014-Jul-30 00:34N 51°28' E 000°47'1716.7
2014-Jul-29 23:33N 51°29' E 001°13'10 9.6
2014-Jul-29 22:33N 51°25' E 001°27'1 1.0
2014-Jul-29 21:33N 51°25' E 001°26'0 0.0
2014-Jul-29 20:33N 51°25' E 001°26'0 0.0
2014-Jul-29 19:33N 51°25' E 001°26'0 0.0
2014-Jul-29 18:33N 51°25' E 001°26'3 2.9
2014-Jul-29 17:34N 51°26' E 001°30'9 8.8
2014-Jul-29 16:33N 51°33' E 001°39'8 8.2
2014-Jul-29 15:34N 51°40' E 001°45'9 8.8
2014-Jul-29 14:33N 51°49' E 001°44'9 9.2
2014-Jul-29 13:33N 51°58' E 001°46'10 9.9
2014-Jul-29 12:33N 52°08' E 001°50'1511.3
2014-Jul-29 11:14N 52°22' E 001°56'912.0
2014-Jul-29 10:31N 52°31' E 001°59'1411.0
2014-Jul-29 09:12N 52°45' E 001°58'812.6
2014-Jul-29 08:33N 52°50' E 001°48'1212.4
2014-Jul-29 07:33N 52°58' E 001°31'1111.4
2014-Jul-29 06:33N 53°07' E 001°21'3216.1
2014-Jul-29 04:33N 53°35' E 000°54'1716.1
2014-Jul-29 03:29N 53°50' E 000°39'1415.4
2014-Jul-29 02:33N 54°02' E 000°26'1514.9
2014-Jul-29 01:33N 54°12' E 000°07'1414.2
2014-Jul-29 00:33N 54°22' W 000°10'1413.8
2014-Jul-28 23:33N 54°32' W 000°27'1413.7
2014-Jul-28 22:33N 54°41' W 000°44'1414.4
2014-Jul-28 21:33N 54°51' W 001°02'1514.1
2014-Jul-28 20:28N 55°01' W 001°23'3 1.3
2014-Jul-28 18:14N 54°59' W 001°27'0 0.0
2014-Jul-28 17:32N 54°59' W 001°27'8 1.5
2014-Jul-28 12:25N 54°58' W 001°14'1315.7
2014-Jul-28 11:33N 54°48' W 000°57'2016.4
2014-Jul-28 10:21N 54°34' W 000°33'1316.7
2014-Jul-28 09:33N 54°25' W 000°16'1615.9
2014-Jul-28 08:33N 54°14' E 000°04'1515.3
2014-Jul-28 07:33N 54°04' E 000°22'1914.1
2014-Jul-28 06:11N 53°48' E 000°41'1013.3
2014-Jul-28 05:28N 53°40' E 000°49'1313.5
2014-Jul-28 04:29N 53°28' E 001°00'1414.6
2014-Jul-28 03:32N 53°16' E 001°12'1616.4
2014-Jul-28 02:33N 53°02' E 001°25'1717.2
2014-Jul-28 01:33N 52°51' E 001°46'1713.8
2014-Jul-28 00:19N 52°36' E 002°02'2514.4
2014-Jul-27 22:33N 52°11' E 001°54'1313.1
2014-Jul-27 21:33N 51°58' E 001°50'1313.0
2014-Jul-27 20:33N 51°45' E 001°49'1313.2
2014-Jul-27 19:34N 51°32' E 001°46'1413.6
2014-Jul-27 18:33N 51°19' E 001°42'1212.1
2014-Jul-27 17:33N 51°07' E 001°38'1313.1
2014-Jul-27 16:33N 50°55' E 001°29'3014.3
2014-Jul-27 14:27N 50°31' E 001°01'1314.7
2014-Jul-27 13:33N 50°27' E 000°42'1514.7
2014-Jul-27 12:33N 50°23' E 000°19'22215.6
2014-Jul-26 22:22N 48°60' W 004°59'6413.2
2014-Jul-26 17:29N 48°11' W 006°02'1415.0
2014-Jul-26 16:33N 47°59' W 006°12'1715.3
2014-Jul-26 15:27N 47°44' W 006°24'59513.9
2014-Jul-24 20:31N 38°06' W 009°40'1413.8
2014-Jul-24 19:31N 37°53' W 009°37'1313.6
2014-Jul-24 18:33N 37°40' W 009°33'1513.7
2014-Jul-24 17:29N 37°26' W 009°28'5412.6
2014-Jul-24 13:10N 36°40' W 008°51'1313.8
2014-Jul-24 12:14N 36°36' W 008°36'16113.8
2014-Jul-24 00:33N 36°01' W 005°21'15313.5
2014-Jul-23 13:15N 36°26' W 002°15'1114.4
2014-Jul-23 12:31N 36°31' W 002°03'3415.6
2014-Jul-23 10:20N 36°54' W 001°31'1415.7
2014-Jul-23 09:25N 37°03' W 001°18'1415.5
2014-Jul-23 08:33N 37°12' W 001°05'1515.4
2014-Jul-23 07:33N 37°22' W 000°51'1515.3
2014-Jul-23 06:33N 37°32' W 000°37'1615.3
2014-Jul-23 05:29N 37°45' W 000°24'1514.9
2014-Jul-23 04:29N 37°58' W 000°14'2914.9
2014-Jul-23 02:32N 38°22' E 000°06'1715.3
2014-Jul-23 01:25N 38°37' E 000°18'1315.3
2014-Jul-23 00:33N 38°48' E 000°27'1815.1
2014-Jul-22 23:22N 39°04' E 000°38'1215.1
2014-Jul-22 22:33N 39°15' E 000°45'3115.5
2014-Jul-22 20:33N 39°42' E 001°05'1615.5
2014-Jul-22 19:33N 39°55' E 001°15'1615.5
2014-Jul-22 18:33N 40°09' E 001°23'1515.3
2014-Jul-22 17:34N 40°23' E 001°33'1515.1
2014-Jul-22 16:33N 40°36' E 001°42'1815.1
2014-Jul-22 15:23N 40°52' E 001°53'1315.1
2014-Jul-22 14:31N 41°03' E 002°01'1414.9
2014-Jul-22 13:33N 41°16' E 002°10'4 4.3
2014-Jul-22 12:33N 41°20' E 002°09'0 0.0
2014-Jul-22 11:18N 41°20' E 002°09'0 0.0
2014-Jul-22 10:12N 41°20' E 002°09'  
Track history (hours):
 
Tides and Currents Weather Stations Pressure Air Temp Water Temp Dewpoint Dewpoint Depression Visibility Wind Speed Wind Dir Waves Ship Positions

Galicia

Last reported at 2014-Aug-01 09:33 UTC. Time now 2014-Aug-01 09:51 UTC.
Position N 51°14' E 001°46'.

Length 149 m; draft 5.5 m.

Type: Cargo ship. MMSI: 224548000.

Date/timePositionNaut miles runAvg speedWind from/ knotsBaromVisibWave heightAir tempDewpointWater temp
2014-Aug-01 09:33N 51°14' E 001°46'1514.4
2014-Aug-01 08:31N 51°24' E 002°04'1414.6
2014-Aug-01 07:31N 51°22' E 002°27'1414.4
2014-Aug-01 06:33N 51°22' E 002°50'16 7.5
2014-Aug-01 04:29N 51°19' E 003°14'0 0.0
2014-Aug-01 03:33N 51°19' E 003°14'0 0.0
2014-Aug-01 02:33N 51°19' E 003°14'0 0.0
2014-Aug-01 01:33N 51°19' E 003°14'0 0.0
2014-Aug-01 00:32N 51°19' E 003°14'0 0.0
2014-Jul-31 23:33N 51°19' E 003°14'0 0.0
2014-Jul-31 22:33N 51°19' E 003°14'0 0.0
2014-Jul-31 21:33N 51°19' E 003°14'0 0.0
2014-Jul-31 20:33N 51°19' E 003°14'0 0.0
2014-Jul-31 19:33N 51°19' E 003°14'0 0.0
2014-Jul-31 18:33N 51°19' E 003°14'0 0.0
2014-Jul-31 17:33N 51°19' E 003°14'0 0.0
2014-Jul-31 16:33N 51°19' E 003°14'0 0.0
2014-Jul-31 15:33N 51°18' E 003°14'0 0.0
2014-Jul-31 14:33N 51°19' E 003°14'0 0.0
2014-Jul-31 13:33N 51°19' E 003°14'0 0.0
2014-Jul-31 12:33N 51°19' E 003°14'0 0.0
2014-Jul-31 11:33N 51°19' E 003°14'0 0.0
2014-Jul-31 10:33N 51°19' E 003°14'0 0.0
2014-Jul-31 09:33N 51°19' E 003°14'0 0.0
2014-Jul-31 08:33N 51°19' E 003°14'0 0.0
2014-Jul-31 07:33N 51°19' E 003°14'0 0.0
2014-Jul-31 06:33N 51°19' E 003°14'0 0.0
2014-Jul-31 05:33N 51°19' E 003°14'0 0.0
2014-Jul-31 04:33N 51°18' E 003°14'0 0.0
2014-Jul-31 03:33N 51°19' E 003°14'0 0.0
2014-Jul-31 02:33N 51°19' E 003°14'0 0.0
2014-Jul-31 01:33N 51°19' E 003°14'0 0.0
2014-Jul-31 00:33N 51°19' E 003°14'2 1.3
2014-Jul-30 23:16N 51°20' E 003°13'2 3.0
2014-Jul-30 22:31N 51°22' E 003°11'7 6.8
2014-Jul-30 21:33N 51°25' E 003°01'8 8.2
2014-Jul-30 20:33N 51°25' E 002°48'9 7.6
2014-Jul-30 19:23N 51°22' E 002°35'1113.2
2014-Jul-30 18:31N 51°19' E 002°17'1212.9
2014-Jul-30 17:33N 51°24' E 001°59'1414.4
2014-Jul-30 16:33N 51°29' E 001°37'1413.9
2014-Jul-30 15:34N 51°29' E 001°15'1616.1
2014-Jul-30 14:34N 51°28' E 000°49'3 3.2
2014-Jul-30 13:33N 51°27' E 000°45'0 0.0
2014-Jul-30 12:33N 51°27' E 000°45'0 0.0
2014-Jul-30 11:33N 51°27' E 000°45'0 0.0
2014-Jul-30 10:33N 51°27' E 000°45'0 0.0
2014-Jul-30 09:33N 51°27' E 000°45'0 0.0
2014-Jul-30 08:33N 51°27' E 000°45'0 0.0
2014-Jul-30 07:33N 51°27' E 000°45'0 0.0
2014-Jul-30 06:27N 51°27' E 000°45'0 0.0
2014-Jul-30 05:33N 51°27' E 000°45'0 0.0
2014-Jul-30 04:33N 51°27' E 000°45'0 0.0
2014-Jul-30 03:33N 51°27' E 000°45'0 0.0
2014-Jul-30 02:33N 51°27' E 000°45'0 0.0
2014-Jul-30 01:33N 51°27' E 000°45'2 1.7
2014-Jul-30 00:34N 51°28' E 000°47'1716.7
2014-Jul-29 23:33N 51°29' E 001°13'10 9.6
2014-Jul-29 22:33N 51°25' E 001°27'1 1.0
2014-Jul-29 21:33N 51°25' E 001°26'0 0.0
2014-Jul-29 20:33N 51°25' E 001°26'0 0.0
2014-Jul-29 19:33N 51°25' E 001°26'0 0.0
2014-Jul-29 18:33N 51°25' E 001°26'3 2.9
2014-Jul-29 17:34N 51°26' E 001°30'9 8.8
2014-Jul-29 16:33N 51°33' E 001°39'8 8.2
2014-Jul-29 15:34N 51°40' E 001°45'9 8.8
2014-Jul-29 14:33N 51°49' E 001°44'9 9.2
2014-Jul-29 13:33N 51°58' E 001°46'10 9.9
2014-Jul-29 12:33N 52°08' E 001°50'1511.3
2014-Jul-29 11:14N 52°22' E 001°56'912.0
2014-Jul-29 10:31N 52°31' E 001°59'1411.0
2014-Jul-29 09:12N 52°45' E 001°58'812.6
2014-Jul-29 08:33N 52°50' E 001°48'1212.4
2014-Jul-29 07:33N 52°58' E 001°31'1111.4
2014-Jul-29 06:33N 53°07' E 001°21'3216.1
2014-Jul-29 04:33N 53°35' E 000°54'1716.1
2014-Jul-29 03:29N 53°50' E 000°39'1415.4
2014-Jul-29 02:33N 54°02' E 000°26'1514.9
2014-Jul-29 01:33N 54°12' E 000°07'1414.2
2014-Jul-29 00:33N 54°22' W 000°10'1413.8
2014-Jul-28 23:33N 54°32' W 000°27'1413.7
2014-Jul-28 22:33N 54°41' W 000°44'1414.4
2014-Jul-28 21:33N 54°51' W 001°02'1514.1
2014-Jul-28 20:28N 55°01' W 001°23'3 1.3
2014-Jul-28 18:14N 54°59' W 001°27'0 0.0
2014-Jul-28 17:32N 54°59' W 001°27'8 1.5
2014-Jul-28 12:25N 54°58' W 001°14'1315.7
2014-Jul-28 11:33N 54°48' W 000°57'2016.4
2014-Jul-28 10:21N 54°34' W 000°33'1316.7
2014-Jul-28 09:33N 54°25' W 000°16'1615.9
2014-Jul-28 08:33N 54°14' E 000°04'1515.3
2014-Jul-28 07:33N 54°04' E 000°22'1914.1
2014-Jul-28 06:11N 53°48' E 000°41'1013.3
2014-Jul-28 05:28N 53°40' E 000°49'1313.5
2014-Jul-28 04:29N 53°28' E 001°00'1414.6
2014-Jul-28 03:32N 53°16' E 001°12'1616.4
2014-Jul-28 02:33N 53°02' E 001°25'1717.2
2014-Jul-28 01:33N 52°51' E 001°46'1713.8
2014-Jul-28 00:19N 52°36' E 002°02'2514.4
2014-Jul-27 22:33N 52°11' E 001°54'1313.1
2014-Jul-27 21:33N 51°58' E 001°50'1313.0
2014-Jul-27 20:33N 51°45' E 001°49'1313.2
2014-Jul-27 19:34N 51°32' E 001°46'1413.6
2014-Jul-27 18:33N 51°19' E 001°42'1212.1
2014-Jul-27 17:33N 51°07' E 001°38'1313.1
2014-Jul-27 16:33N 50°55' E 001°29'3014.3
2014-Jul-27 14:27N 50°31' E 001°01'1314.7
2014-Jul-27 13:33N 50°27' E 000°42'1514.7
2014-Jul-27 12:33N 50°23' E 000°19'22215.6
2014-Jul-26 22:22N 48°60' W 004°59'6413.2
2014-Jul-26 17:29N 48°11' W 006°02'1415.0
2014-Jul-26 16:33N 47°59' W 006°12'1715.3
2014-Jul-26 15:27N 47°44' W 006°24'59513.9
2014-Jul-24 20:31N 38°06' W 009°40'1413.8
2014-Jul-24 19:31N 37°53' W 009°37'1313.6
2014-Jul-24 18:33N 37°40' W 009°33'1513.7
2014-Jul-24 17:29N 37°26' W 009°28'5412.6
2014-Jul-24 13:10N 36°40' W 008°51'1313.8
2014-Jul-24 12:14N 36°36' W 008°36'16113.8
2014-Jul-24 00:33N 36°01' W 005°21'15313.5
2014-Jul-23 13:15N 36°26' W 002°15'1114.4
2014-Jul-23 12:31N 36°31' W 002°03'3415.6
2014-Jul-23 10:20N 36°54' W 001°31'1415.7
2014-Jul-23 09:25N 37°03' W 001°18'1415.5
2014-Jul-23 08:33N 37°12' W 001°05'1515.4
2014-Jul-23 07:33N 37°22' W 000°51'1515.3
2014-Jul-23 06:33N 37°32' W 000°37'1615.3
2014-Jul-23 05:29N 37°45' W 000°24'1514.9
2014-Jul-23 04:29N 37°58' W 000°14'2914.9
2014-Jul-23 02:32N 38°22' E 000°06'1715.3
2014-Jul-23 01:25N 38°37' E 000°18'1315.3
2014-Jul-23 00:33N 38°48' E 000°27'1815.1
2014-Jul-22 23:22N 39°04' E 000°38'1215.1
2014-Jul-22 22:33N 39°15' E 000°45'3115.5
2014-Jul-22 20:33N 39°42' E 001°05'1615.5
2014-Jul-22 19:33N 39°55' E 001°15'1615.5
2014-Jul-22 18:33N 40°09' E 001°23'1515.3
2014-Jul-22 17:34N 40°23' E 001°33'1515.1
2014-Jul-22 16:33N 40°36' E 001°42'1815.1
2014-Jul-22 15:23N 40°52' E 001°53'1315.1
2014-Jul-22 14:31N 41°03' E 002°01'1414.9
2014-Jul-22 13:33N 41°16' E 002°10'4 4.3
2014-Jul-22 12:33N 41°20' E 002°09'0 0.0
2014-Jul-22 11:18N 41°20' E 002°09'0 0.0
2014-Jul-22 10:12N 41°20' E 002°09'  

Dump ship's entire track history